sensor_id;sensor_type;location;lat;lon;timestamp;temperature;humidity
11772;DHT22;12556;55.748;13.194;2022-10-16T00:02:23;14.30;99.90
11772;DHT22;12556;55.748;13.194;2022-10-16T00:04:50;14.30;99.90
11772;DHT22;12556;55.748;13.194;2022-10-16T00:07:17;14.30;99.90
11772;DHT22;12556;55.748;13.194;2022-10-16T00:09:44;14.30;99.90
11772;DHT22;12556;55.748;13.194;2022-10-16T00:12:12;14.30;99.90
11772;DHT22;12556;55.748;13.194;2022-10-16T00:14:40;14.30;99.90
11772;DHT22;12556;55.748;13.194;2022-10-16T00:17:09;14.30;99.90
11772;DHT22;12556;55.748;13.194;2022-10-16T00:19:36;14.20;99.90
11772;DHT22;12556;55.748;13.194;2022-10-16T00:22:03;14.20;99.90
11772;DHT22;12556;55.748;13.194;2022-10-16T00:24:30;14.20;99.90
11772;DHT22;12556;55.748;13.194;2022-10-16T00:26:57;14.20;99.90
11772;DHT22;12556;55.748;13.194;2022-10-16T00:29:23;14.20;99.90
11772;DHT22;12556;55.748;13.194;2022-10-16T00:31:52;14.20;99.90
11772;DHT22;12556;55.748;13.194;2022-10-16T00:34:19;14.20;99.90
11772;DHT22;12556;55.748;13.194;2022-10-16T00:36:45;14.10;99.90
11772;DHT22;12556;55.748;13.194;2022-10-16T00:39:12;14.10;99.90
11772;DHT22;12556;55.748;13.194;2022-10-16T00:41:40;14.10;99.90
11772;DHT22;12556;55.748;13.194;2022-10-16T00:47:11;14.00;99.90
11772;DHT22;12556;55.748;13.194;2022-10-16T00:49:39;14.00;99.90
11772;DHT22;12556;55.748;13.194;2022-10-16T00:52:06;13.90;99.90
11772;DHT22;12556;55.748;13.194;2022-10-16T00:54:33;13.90;99.90
11772;DHT22;12556;55.748;13.194;2022-10-16T00:57:03;13.80;99.90
11772;DHT22;12556;55.748;13.194;2022-10-16T00:59:32;13.90;99.90
11772;DHT22;12556;55.748;13.194;2022-10-16T01:02:00;13.80;99.90
11772;DHT22;12556;55.748;13.194;2022-10-16T01:04:34;13.80;99.90
11772;DHT22;12556;55.748;13.194;2022-10-16T01:07:08;13.70;99.90
11772;DHT22;12556;55.748;13.194;2022-10-16T01:09:47;13.70;99.90
11772;DHT22;12556;55.748;13.194;2022-10-16T01:12:37;13.70;99.90
11772;DHT22;12556;55.748;13.194;2022-10-16T01:15:10;13.60;99.90
11772;DHT22;12556;55.748;13.194;2022-10-16T01:17:43;13.60;99.90
11772;DHT22;12556;55.748;13.194;2022-10-16T01:20:18;13.60;99.90
11772;DHT22;12556;55.748;13.194;2022-10-16T01:23:02;13.60;99.90
11772;DHT22;12556;55.748;13.194;2022-10-16T01:25:39;13.60;99.90
11772;DHT22;12556;55.748;13.194;2022-10-16T01:28:17;13.60;99.90
11772;DHT22;12556;55.748;13.194;2022-10-16T01:30:46;13.60;99.90
11772;DHT22;12556;55.748;13.194;2022-10-16T01:33:18;13.60;99.90
11772;DHT22;12556;55.748;13.194;2022-10-16T01:35:50;13.60;99.90
11772;DHT22;12556;55.748;13.194;2022-10-16T01:38:22;13.70;99.90
11772;DHT22;12556;55.748;13.194;2022-10-16T01:40:55;13.70;99.90
11772;DHT22;12556;55.748;13.194;2022-10-16T01:43:26;13.70;99.90
11772;DHT22;12556;55.748;13.194;2022-10-16T01:45:55;13.70;99.90
11772;DHT22;12556;55.748;13.194;2022-10-16T01:48:23;13.60;99.90
11772;DHT22;12556;55.748;13.194;2022-10-16T01:50:55;13.60;99.90
11772;DHT22;12556;55.748;13.194;2022-10-16T01:53:24;13.60;99.90
11772;DHT22;12556;55.748;13.194;2022-10-16T01:55:53;13.60;99.90
11772;DHT22;12556;55.748;13.194;2022-10-16T01:58:23;13.50;99.90
11772;DHT22;12556;55.748;13.194;2022-10-16T02:00:52;13.50;99.90
11772;DHT22;12556;55.748;13.194;2022-10-16T02:03:20;13.50;99.90
11772;DHT22;12556;55.748;13.194;2022-10-16T02:05:51;13.40;99.90
11772;DHT22;12556;55.748;13.194;2022-10-16T02:08:20;13.40;99.90
11772;DHT22;12556;55.748;13.194;2022-10-16T02:10:47;13.40;99.90
11772;DHT22;12556;55.748;13.194;2022-10-16T02:13:17;13.40;99.90
11772;DHT22;12556;55.748;13.194;2022-10-16T02:15:47;13.40;99.90
11772;DHT22;12556;55.748;13.194;2022-10-16T02:18:14;13.40;99.90
11772;DHT22;12556;55.748;13.194;2022-10-16T02:20:47;13.30;99.90
11772;DHT22;12556;55.748;13.194;2022-10-16T02:23:22;13.30;99.90
11772;DHT22;12556;55.748;13.194;2022-10-16T02:25:52;13.30;99.90
11772;DHT22;12556;55.748;13.194;2022-10-16T02:28:24;13.30;99.90
11772;DHT22;12556;55.748;13.194;2022-10-16T02:30:58;13.30;99.90
11772;DHT22;12556;55.748;13.194;2022-10-16T02:33:27;13.20;99.90
11772;DHT22;12556;55.748;13.194;2022-10-16T02:35:55;13.20;99.90
11772;DHT22;12556;55.748;13.194;2022-10-16T02:38:24;13.10;99.90
11772;DHT22;12556;55.748;13.194;2022-10-16T02:40:51;13.10;99.90
11772;DHT22;12556;55.748;13.194;2022-10-16T02:43:19;13.10;99.90
11772;DHT22;12556;55.748;13.194;2022-10-16T02:45:46;13.10;99.90
11772;DHT22;12556;55.748;13.194;2022-10-16T02:48:14;13.10;99.90
11772;DHT22;12556;55.748;13.194;2022-10-16T02:50:41;13.10;99.90
11772;DHT22;12556;55.748;13.194;2022-10-16T02:53:08;13.00;99.90
11772;DHT22;12556;55.748;13.194;2022-10-16T02:55:35;13.00;99.90
11772;DHT22;12556;55.748;13.194;2022-10-16T02:58:02;13.00;99.90
11772;DHT22;12556;55.748;13.194;2022-10-16T03:00:29;13.00;99.90
11772;DHT22;12556;55.748;13.194;2022-10-16T03:02:56;13.00;99.90
11772;DHT22;12556;55.748;13.194;2022-10-16T03:05:24;13.00;99.90
11772;DHT22;12556;55.748;13.194;2022-10-16T03:07:51;13.00;99.90
11772;DHT22;12556;55.748;13.194;2022-10-16T03:10:19;12.90;99.90
11772;DHT22;12556;55.748;13.194;2022-10-16T03:12:46;13.00;99.90
11772;DHT22;12556;55.748;13.194;2022-10-16T03:15:13;12.90;99.90
11772;DHT22;12556;55.748;13.194;2022-10-16T03:17:39;12.90;99.90
11772;DHT22;12556;55.748;13.194;2022-10-16T03:20:07;12.80;99.90
11772;DHT22;12556;55.748;13.194;2022-10-16T03:22:35;12.80;99.90
11772;DHT22;12556;55.748;13.194;2022-10-16T03:25:02;12.80;99.90
11772;DHT22;12556;55.748;13.194;2022-10-16T03:27:29;12.80;99.90
11772;DHT22;12556;55.748;13.194;2022-10-16T03:29:56;12.70;99.90
11772;DHT22;12556;55.748;13.194;2022-10-16T03:32:23;12.70;99.90
11772;DHT22;12556;55.748;13.194;2022-10-16T03:34:51;12.70;99.90
11772;DHT22;12556;55.748;13.194;2022-10-16T03:37:19;12.60;99.90
11772;DHT22;12556;55.748;13.194;2022-10-16T03:39:48;12.60;99.90
11772;DHT22;12556;55.748;13.194;2022-10-16T03:42:15;12.60;99.90
11772;DHT22;12556;55.748;13.194;2022-10-16T03:44:41;12.60;99.90
11772;DHT22;12556;55.748;13.194;2022-10-16T03:47:08;12.60;99.90
11772;DHT22;12556;55.748;13.194;2022-10-16T03:49:35;12.50;99.90
11772;DHT22;12556;55.748;13.194;2022-10-16T03:52:02;12.50;99.90
11772;DHT22;12556;55.748;13.194;2022-10-16T03:54:29;12.50;99.90
11772;DHT22;12556;55.748;13.194;2022-10-16T03:56:58;12.50;99.90
11772;DHT22;12556;55.748;13.194;2022-10-16T03:59:25;12.50;99.90
11772;DHT22;12556;55.748;13.194;2022-10-16T04:01:52;12.50;99.90
11772;DHT22;12556;55.748;13.194;2022-10-16T04:04:18;12.40;99.90
11772;DHT22;12556;55.748;13.194;2022-10-16T04:06:45;12.40;99.90
11772;DHT22;12556;55.748;13.194;2022-10-16T04:09:12;12.40;99.90
11772;DHT22;12556;55.748;13.194;2022-10-16T04:11:39;12.40;99.90
11772;DHT22;12556;55.748;13.194;2022-10-16T04:14:08;12.30;99.90
11772;DHT22;12556;55.748;13.194;2022-10-16T04:16:34;12.30;99.90
11772;DHT22;12556;55.748;13.194;2022-10-16T04:19:01;12.30;99.90
11772;DHT22;12556;55.748;13.194;2022-10-16T04:21:28;12.30;99.90
11772;DHT22;12556;55.748;13.194;2022-10-16T04:23:55;12.30;99.90
11772;DHT22;12556;55.748;13.194;2022-10-16T04:26:22;12.20;99.90
11772;DHT22;12556;55.748;13.194;2022-10-16T04:28:49;12.20;99.90
11772;DHT22;12556;55.748;13.194;2022-10-16T04:31:17;12.20;99.90
11772;DHT22;12556;55.748;13.194;2022-10-16T04:33:44;12.20;99.90
11772;DHT22;12556;55.748;13.194;2022-10-16T04:36:11;12.20;99.90
11772;DHT22;12556;55.748;13.194;2022-10-16T04:38:38;12.20;99.90
11772;DHT22;12556;55.748;13.194;2022-10-16T04:41:06;12.20;99.90
11772;DHT22;12556;55.748;13.194;2022-10-16T04:43:34;12.20;99.90
11772;DHT22;12556;55.748;13.194;2022-10-16T04:46:01;12.20;99.90
11772;DHT22;12556;55.748;13.194;2022-10-16T04:48:31;12.20;99.90
11772;DHT22;12556;55.748;13.194;2022-10-16T04:50:59;12.20;99.90
11772;DHT22;12556;55.748;13.194;2022-10-16T04:53:25;12.30;99.90
11772;DHT22;12556;55.748;13.194;2022-10-16T04:55:52;12.30;99.90
11772;DHT22;12556;55.748;13.194;2022-10-16T04:58:19;12.40;99.90
11772;DHT22;12556;55.748;13.194;2022-10-16T05:00:46;12.40;99.90
11772;DHT22;12556;55.748;13.194;2022-10-16T05:03:13;12.50;99.90
11772;DHT22;12556;55.748;13.194;2022-10-16T05:05:44;12.50;99.90
11772;DHT22;12556;55.748;13.194;2022-10-16T05:08:11;12.60;99.90
11772;DHT22;12556;55.748;13.194;2022-10-16T05:10:39;12.60;99.90
11772;DHT22;12556;55.748;13.194;2022-10-16T05:13:07;12.60;99.90
11772;DHT22;12556;55.748;13.194;2022-10-16T05:15:34;12.70;99.90
11772;DHT22;12556;55.748;13.194;2022-10-16T05:18:01;12.70;99.90
11772;DHT22;12556;55.748;13.194;2022-10-16T05:20:28;12.80;99.90
11772;DHT22;12556;55.748;13.194;2022-10-16T05:22:56;12.80;99.90
11772;DHT22;12556;55.748;13.194;2022-10-16T05:25:23;12.80;99.90
11772;DHT22;12556;55.748;13.194;2022-10-16T05:27:50;12.80;99.90
11772;DHT22;12556;55.748;13.194;2022-10-16T05:30:17;12.90;99.90
11772;DHT22;12556;55.748;13.194;2022-10-16T05:32:47;12.90;99.90
11772;DHT22;12556;55.748;13.194;2022-10-16T05:35:14;13.00;99.90
11772;DHT22;12556;55.748;13.194;2022-10-16T05:37:41;13.00;99.90
11772;DHT22;12556;55.748;13.194;2022-10-16T05:40:10;13.00;99.90
11772;DHT22;12556;55.748;13.194;2022-10-16T05:42:38;13.10;99.90
11772;DHT22;12556;55.748;13.194;2022-10-16T05:45:06;13.10;99.90
11772;DHT22;12556;55.748;13.194;2022-10-16T05:47:34;13.10;99.90
11772;DHT22;12556;55.748;13.194;2022-10-16T05:50:02;13.10;99.90
11772;DHT22;12556;55.748;13.194;2022-10-16T05:52:29;13.20;99.90
11772;DHT22;12556;55.748;13.194;2022-10-16T05:54:56;13.20;99.90
11772;DHT22;12556;55.748;13.194;2022-10-16T05:57:24;13.30;99.90
11772;DHT22;12556;55.748;13.194;2022-10-16T05:59:51;13.20;99.90
11772;DHT22;12556;55.748;13.194;2022-10-16T06:02:18;13.20;99.90
11772;DHT22;12556;55.748;13.194;2022-10-16T06:04:45;13.30;99.90
11772;DHT22;12556;55.748;13.194;2022-10-16T06:07:12;13.20;99.90
11772;DHT22;12556;55.748;13.194;2022-10-16T06:09:39;13.80;99.90
11772;DHT22;12556;55.748;13.194;2022-10-16T06:12:06;13.30;99.90
11772;DHT22;12556;55.748;13.194;2022-10-16T06:14:34;13.30;99.90
11772;DHT22;12556;55.748;13.194;2022-10-16T06:17:01;13.30;99.90
11772;DHT22;12556;55.748;13.194;2022-10-16T06:19:28;13.30;99.90
11772;DHT22;12556;55.748;13.194;2022-10-16T06:21:55;13.30;99.90
11772;DHT22;12556;55.748;13.194;2022-10-16T06:24:23;13.30;99.90
11772;DHT22;12556;55.748;13.194;2022-10-16T06:26:50;13.30;99.90
11772;DHT22;12556;55.748;13.194;2022-10-16T06:29:17;13.30;99.90
11772;DHT22;12556;55.748;13.194;2022-10-16T06:31:45;13.30;99.90
11772;DHT22;12556;55.748;13.194;2022-10-16T06:34:12;13.30;99.90
11772;DHT22;12556;55.748;13.194;2022-10-16T06:36:39;13.40;99.90
11772;DHT22;12556;55.748;13.194;2022-10-16T06:39:07;13.40;99.90
11772;DHT22;12556;55.748;13.194;2022-10-16T06:41:34;13.40;99.90
11772;DHT22;12556;55.748;13.194;2022-10-16T06:44:01;13.40;99.90
11772;DHT22;12556;55.748;13.194;2022-10-16T06:46:28;13.50;99.90
11772;DHT22;12556;55.748;13.194;2022-10-16T06:48:56;13.40;99.90
11772;DHT22;12556;55.748;13.194;2022-10-16T06:51:24;13.50;99.90
11772;DHT22;12556;55.748;13.194;2022-10-16T06:53:53;13.50;99.90
11772;DHT22;12556;55.748;13.194;2022-10-16T06:56:23;13.50;99.90
11772;DHT22;12556;55.748;13.194;2022-10-16T06:58:51;13.50;99.90
11772;DHT22;12556;55.748;13.194;2022-10-16T07:01:20;13.50;99.90
11772;DHT22;12556;55.748;13.194;2022-10-16T07:03:47;13.50;99.90
11772;DHT22;12556;55.748;13.194;2022-10-16T07:06:18;13.50;99.90
11772;DHT22;12556;55.748;13.194;2022-10-16T07:08:46;13.50;99.90
11772;DHT22;12556;55.748;13.194;2022-10-16T07:11:16;13.50;99.90
11772;DHT22;12556;55.748;13.194;2022-10-16T07:13:45;13.60;99.90
11772;DHT22;12556;55.748;13.194;2022-10-16T07:16:14;13.60;99.90
11772;DHT22;12556;55.748;13.194;2022-10-16T07:18:41;13.60;99.90
11772;DHT22;12556;55.748;13.194;2022-10-16T07:21:12;13.60;99.90
11772;DHT22;12556;55.748;13.194;2022-10-16T07:23:41;13.60;99.90
11772;DHT22;12556;55.748;13.194;2022-10-16T07:26:09;13.70;99.90
11772;DHT22;12556;55.748;13.194;2022-10-16T07:28:36;13.70;99.90
11772;DHT22;12556;55.748;13.194;2022-10-16T07:31:06;13.80;99.90
11772;DHT22;12556;55.748;13.194;2022-10-16T07:33:34;13.80;99.90
11772;DHT22;12556;55.748;13.194;2022-10-16T07:36:01;13.80;99.90
11772;DHT22;12556;55.748;13.194;2022-10-16T07:38:28;13.90;99.90
11772;DHT22;12556;55.748;13.194;2022-10-16T07:41:01;13.90;99.90
11772;DHT22;12556;55.748;13.194;2022-10-16T07:43:28;14.00;99.90
11772;DHT22;12556;55.748;13.194;2022-10-16T07:45:55;14.00;99.90
11772;DHT22;12556;55.748;13.194;2022-10-16T07:48:23;14.10;99.90
11772;DHT22;12556;55.748;13.194;2022-10-16T07:50:50;14.10;99.90
11772;DHT22;12556;55.748;13.194;2022-10-16T07:53:17;14.10;99.90
11772;DHT22;12556;55.748;13.194;2022-10-16T07:55:44;14.10;99.90
11772;DHT22;12556;55.748;13.194;2022-10-16T07:58:13;14.10;99.90
11772;DHT22;12556;55.748;13.194;2022-10-16T08:00:39;14.10;99.90
11772;DHT22;12556;55.748;13.194;2022-10-16T08:03:07;14.20;99.90
11772;DHT22;12556;55.748;13.194;2022-10-16T08:05:34;14.20;99.90
11772;DHT22;12556;55.748;13.194;2022-10-16T08:08:01;14.30;99.90
11772;DHT22;12556;55.748;13.194;2022-10-16T08:10:29;14.30;99.90
11772;DHT22;12556;55.748;13.194;2022-10-16T08:12:57;14.40;99.90
11772;DHT22;12556;55.748;13.194;2022-10-16T08:15:25;14.40;99.90
11772;DHT22;12556;55.748;13.194;2022-10-16T08:17:57;14.40;99.90
11772;DHT22;12556;55.748;13.194;2022-10-16T08:20:24;14.50;99.90
11772;DHT22;12556;55.748;13.194;2022-10-16T08:22:51;14.50;99.90
11772;DHT22;12556;55.748;13.194;2022-10-16T08:25:18;14.50;99.90
11772;DHT22;12556;55.748;13.194;2022-10-16T08:27:45;14.60;99.90
11772;DHT22;12556;55.748;13.194;2022-10-16T08:30:12;14.60;99.90
11772;DHT22;12556;55.748;13.194;2022-10-16T08:32:41;14.70;99.90
11772;DHT22;12556;55.748;13.194;2022-10-16T08:35:08;14.80;99.90
11772;DHT22;12556;55.748;13.194;2022-10-16T08:37:36;14.80;99.90
11772;DHT22;12556;55.748;13.194;2022-10-16T08:40:04;14.90;99.90
11772;DHT22;12556;55.748;13.194;2022-10-16T08:42:50;14.90;99.90
11772;DHT22;12556;55.748;13.194;2022-10-16T08:45:29;15.00;99.90
11772;DHT22;12556;55.748;13.194;2022-10-16T08:48:17;15.00;99.90
11772;DHT22;12556;55.748;13.194;2022-10-16T08:50:48;15.00;99.90
11772;DHT22;12556;55.748;13.194;2022-10-16T08:53:19;15.00;99.90
11772;DHT22;12556;55.748;13.194;2022-10-16T08:55:50;15.00;99.90
11772;DHT22;12556;55.748;13.194;2022-10-16T08:58:19;15.00;99.90
11772;DHT22;12556;55.748;13.194;2022-10-16T09:00:48;15.00;99.90
11772;DHT22;12556;55.748;13.194;2022-10-16T09:03:27;15.00;99.90
11772;DHT22;12556;55.748;13.194;2022-10-16T09:06:20;15.10;99.90
11772;DHT22;12556;55.748;13.194;2022-10-16T09:09:03;15.10;99.90
11772;DHT22;12556;55.748;13.194;2022-10-16T09:11:39;15.10;99.90
11772;DHT22;12556;55.748;13.194;2022-10-16T09:14:19;15.10;99.90
11772;DHT22;12556;55.748;13.194;2022-10-16T09:16:56;15.10;99.90
11772;DHT22;12556;55.748;13.194;2022-10-16T09:19:30;15.10;99.90
11772;DHT22;12556;55.748;13.194;2022-10-16T09:21:59;15.20;99.90
11772;DHT22;12556;55.748;13.194;2022-10-16T09:24:30;15.20;99.90
11772;DHT22;12556;55.748;13.194;2022-10-16T09:26:56;15.30;99.90
11772;DHT22;12556;55.748;13.194;2022-10-16T09:29:23;15.30;99.90
11772;DHT22;12556;55.748;13.194;2022-10-16T09:31:51;15.40;99.90
11772;DHT22;12556;55.748;13.194;2022-10-16T09:34:29;15.40;99.90
11772;DHT22;12556;55.748;13.194;2022-10-16T09:36:58;15.40;99.90
11772;DHT22;12556;55.748;13.194;2022-10-16T09:39:25;15.50;99.90
11772;DHT22;12556;55.748;13.194;2022-10-16T09:41:52;15.50;99.90
11772;DHT22;12556;55.748;13.194;2022-10-16T09:44:23;15.60;99.90
11772;DHT22;12556;55.748;13.194;2022-10-16T09:47:01;15.70;99.90
11772;DHT22;12556;55.748;13.194;2022-10-16T09:49:29;15.80;99.90
11772;DHT22;12556;55.748;13.194;2022-10-16T09:52:04;16.00;99.90
11772;DHT22;12556;55.748;13.194;2022-10-16T09:54:31;16.20;99.90
11772;DHT22;12556;55.748;13.194;2022-10-16T09:57:05;16.40;99.90
11772;DHT22;12556;55.748;13.194;2022-10-16T09:59:32;16.60;99.90
11772;DHT22;12556;55.748;13.194;2022-10-16T10:02:03;16.80;99.90
11772;DHT22;12556;55.748;13.194;2022-10-16T10:04:40;17.00;99.90
11772;DHT22;12556;55.748;13.194;2022-10-16T10:07:17;17.30;99.90
11772;DHT22;12556;55.748;13.194;2022-10-16T10:09:45;17.50;99.90
11772;DHT22;12556;55.748;13.194;2022-10-16T10:12:21;17.60;99.90
11772;DHT22;12556;55.748;13.194;2022-10-16T10:14:49;17.80;99.90
11772;DHT22;12556;55.748;13.194;2022-10-16T10:17:19;17.90;99.90
11772;DHT22;12556;55.748;13.194;2022-10-16T10:19:50;17.90;99.90
11772;DHT22;12556;55.748;13.194;2022-10-16T10:22:24;18.00;99.90
11772;DHT22;12556;55.748;13.194;2022-10-16T10:27:42;18.00;99.90
11772;DHT22;12556;55.748;13.194;2022-10-16T10:30:17;18.00;99.90
11772;DHT22;12556;55.748;13.194;2022-10-16T10:32:56;18.00;99.90
11772;DHT22;12556;55.748;13.194;2022-10-16T10:35:35;18.00;99.90
11772;DHT22;12556;55.748;13.194;2022-10-16T10:38:19;18.10;99.90
11772;DHT22;12556;55.748;13.194;2022-10-16T10:40:51;18.10;99.90
11772;DHT22;12556;55.748;13.194;2022-10-16T10:43:34;18.10;99.90
11772;DHT22;12556;55.748;13.194;2022-10-16T10:46:09;18.10;99.90
11772;DHT22;12556;55.748;13.194;2022-10-16T10:49:03;18.10;99.90
11772;DHT22;12556;55.748;13.194;2022-10-16T10:51:44;18.20;99.90
11772;DHT22;12556;55.748;13.194;2022-10-16T10:54:17;18.30;99.90
11772;DHT22;12556;55.748;13.194;2022-10-16T10:56:51;18.30;99.90
11772;DHT22;12556;55.748;13.194;2022-10-16T10:59:37;18.40;99.90
11772;DHT22;12556;55.748;13.194;2022-10-16T11:02:13;18.60;99.90
11772;DHT22;12556;55.748;13.194;2022-10-16T11:07:47;18.80;99.90
11772;DHT22;12556;55.748;13.194;2022-10-16T11:10:20;18.90;99.90
11772;DHT22;12556;55.748;13.194;2022-10-16T11:12:51;19.00;99.90
11772;DHT22;12556;55.748;13.194;2022-10-16T11:15:23;19.10;99.90
11772;DHT22;12556;55.748;13.194;2022-10-16T11:17:54;19.20;99.90
11772;DHT22;12556;55.748;13.194;2022-10-16T11:20:25;19.30;99.90
11772;DHT22;12556;55.748;13.194;2022-10-16T11:22:56;19.40;99.90
11772;DHT22;12556;55.748;13.194;2022-10-16T11:25:27;19.50;99.90
11772;DHT22;12556;55.748;13.194;2022-10-16T11:27:58;19.50;99.90
11772;DHT22;12556;55.748;13.194;2022-10-16T11:30:30;19.50;99.90
11772;DHT22;12556;55.748;13.194;2022-10-16T11:33:05;19.40;99.90
11772;DHT22;12556;55.748;13.194;2022-10-16T11:35:41;19.30;99.90
11772;DHT22;12556;55.748;13.194;2022-10-16T11:38:15;19.30;99.90
11772;DHT22;12556;55.748;13.194;2022-10-16T11:40:48;19.30;99.90
11772;DHT22;12556;55.748;13.194;2022-10-16T11:43:24;19.30;99.90
11772;DHT22;12556;55.748;13.194;2022-10-16T11:45:53;19.30;99.90
11772;DHT22;12556;55.748;13.194;2022-10-16T11:48:26;19.40;99.90
11772;DHT22;12556;55.748;13.194;2022-10-16T11:50:56;19.50;99.90
11772;DHT22;12556;55.748;13.194;2022-10-16T11:53:38;19.60;99.90
11772;DHT22;12556;55.748;13.194;2022-10-16T11:56:12;19.60;99.90
11772;DHT22;12556;55.748;13.194;2022-10-16T11:58:49;19.60;99.90
11772;DHT22;12556;55.748;13.194;2022-10-16T12:01:22;19.60;99.90
11772;DHT22;12556;55.748;13.194;2022-10-16T12:04:06;19.80;99.90
11772;DHT22;12556;55.748;13.194;2022-10-16T12:06:42;19.90;99.90
11772;DHT22;12556;55.748;13.194;2022-10-16T12:09:18;19.80;99.90
11772;DHT22;12556;55.748;13.194;2022-10-16T12:11:46;19.80;99.90
11772;DHT22;12556;55.748;13.194;2022-10-16T12:14:32;19.80;99.90
11772;DHT22;12556;55.748;13.194;2022-10-16T12:17:01;19.60;99.90
11772;DHT22;12556;55.748;13.194;2022-10-16T12:19:31;19.40;99.90
11772;DHT22;12556;55.748;13.194;2022-10-16T12:22:00;19.20;99.90
11772;DHT22;12556;55.748;13.194;2022-10-16T12:24:35;19.00;99.90
11772;DHT22;12556;55.748;13.194;2022-10-16T12:27:04;18.90;99.90
11772;DHT22;12556;55.748;13.194;2022-10-16T12:29:37;18.90;99.90
11772;DHT22;12556;55.748;13.194;2022-10-16T12:32:18;18.90;99.90
11772;DHT22;12556;55.748;13.194;2022-10-16T12:34:47;18.80;99.90
11772;DHT22;12556;55.748;13.194;2022-10-16T12:37:20;18.80;99.90
11772;DHT22;12556;55.748;13.194;2022-10-16T12:39:50;18.80;99.90
11772;DHT22;12556;55.748;13.194;2022-10-16T12:42:33;18.90;99.90
11772;DHT22;12556;55.748;13.194;2022-10-16T12:45:01;18.90;99.90
11772;DHT22;12556;55.748;13.194;2022-10-16T12:47:47;18.90;99.90
11772;DHT22;12556;55.748;13.194;2022-10-16T12:50:27;18.90;99.90
11772;DHT22;12556;55.748;13.194;2022-10-16T12:52:54;18.90;99.90
11772;DHT22;12556;55.748;13.194;2022-10-16T12:55:22;18.80;99.90
11772;DHT22;12556;55.748;13.194;2022-10-16T12:58:31;18.80;99.90
11772;DHT22;12556;55.748;13.194;2022-10-16T13:01:06;18.80;99.90
11772;DHT22;12556;55.748;13.194;2022-10-16T13:03:57;18.70;99.90
11772;DHT22;12556;55.748;13.194;2022-10-16T13:06:33;18.70;99.90
11772;DHT22;12556;55.748;13.194;2022-10-16T13:09:17;18.60;99.90
11772;DHT22;12556;55.748;13.194;2022-10-16T13:12:02;18.40;99.90
11772;DHT22;12556;55.748;13.194;2022-10-16T13:14:54;18.30;99.90
11772;DHT22;12556;55.748;13.194;2022-10-16T13:17:30;18.10;99.90
11772;DHT22;12556;55.748;13.194;2022-10-16T13:20:06;18.00;99.90
11772;DHT22;12556;55.748;13.194;2022-10-16T13:22:42;17.90;99.90
11772;DHT22;12556;55.748;13.194;2022-10-16T13:25:22;17.80;99.90
11772;DHT22;12556;55.748;13.194;2022-10-16T13:27:55;17.70;99.90
11772;DHT22;12556;55.748;13.194;2022-10-16T13:30:25;17.60;99.90
11772;DHT22;12556;55.748;13.194;2022-10-16T13:32:58;17.60;99.90
11772;DHT22;12556;55.748;13.194;2022-10-16T13:35:29;17.50;99.90
11772;DHT22;12556;55.748;13.194;2022-10-16T13:38:11;17.50;99.90
11772;DHT22;12556;55.748;13.194;2022-10-16T13:40:52;17.40;99.90
11772;DHT22;12556;55.748;13.194;2022-10-16T13:43:24;17.30;99.90
11772;DHT22;12556;55.748;13.194;2022-10-16T13:45:59;17.30;99.90
11772;DHT22;12556;55.748;13.194;2022-10-16T13:48:27;17.30;99.90
11772;DHT22;12556;55.748;13.194;2022-10-16T13:51:07;17.30;99.90
11772;DHT22;12556;55.748;13.194;2022-10-16T13:53:38;17.30;99.90
11772;DHT22;12556;55.748;13.194;2022-10-16T13:56:10;17.30;99.90
11772;DHT22;12556;55.748;13.194;2022-10-16T13:58:39;17.20;99.90
11772;DHT22;12556;55.748;13.194;2022-10-16T14:01:16;17.20;99.90
11772;DHT22;12556;55.748;13.194;2022-10-16T14:03:44;17.10;99.90
11772;DHT22;12556;55.748;13.194;2022-10-16T14:06:14;17.00;99.90
11772;DHT22;12556;55.748;13.194;2022-10-16T14:08:43;16.90;99.90
11772;DHT22;12556;55.748;13.194;2022-10-16T14:11:11;16.80;99.90
11772;DHT22;12556;55.748;13.194;2022-10-16T14:13:44;16.80;99.90
11772;DHT22;12556;55.748;13.194;2022-10-16T14:16:18;16.70;99.90
11772;DHT22;12556;55.748;13.194;2022-10-16T14:18:50;16.60;99.90
11772;DHT22;12556;55.748;13.194;2022-10-16T14:21:20;16.60;99.90
11772;DHT22;12556;55.748;13.194;2022-10-16T14:23:47;16.50;99.90
11772;DHT22;12556;55.748;13.194;2022-10-16T14:26:16;16.40;99.90
11772;DHT22;12556;55.748;13.194;2022-10-16T14:28:46;16.50;99.90
11772;DHT22;12556;55.748;13.194;2022-10-16T14:31:28;16.40;99.90
11772;DHT22;12556;55.748;13.194;2022-10-16T14:33:56;16.40;99.90
11772;DHT22;12556;55.748;13.194;2022-10-16T14:36:24;16.30;99.90
11772;DHT22;12556;55.748;13.194;2022-10-16T14:38:58;16.20;99.90
11772;DHT22;12556;55.748;13.194;2022-10-16T14:41:26;16.10;99.90
11772;DHT22;12556;55.748;13.194;2022-10-16T14:43:56;16.10;99.90
11772;DHT22;12556;55.748;13.194;2022-10-16T14:46:32;16.00;99.90
11772;DHT22;12556;55.748;13.194;2022-10-16T14:49:03;16.00;99.90
11772;DHT22;12556;55.748;13.194;2022-10-16T14:51:30;15.90;99.90
11772;DHT22;12556;55.748;13.194;2022-10-16T14:53:57;16.00;99.90
11772;DHT22;12556;55.748;13.194;2022-10-16T14:56:26;15.90;99.90
11772;DHT22;12556;55.748;13.194;2022-10-16T14:58:57;15.90;99.90
11772;DHT22;12556;55.748;13.194;2022-10-16T15:01:24;15.90;99.90
11772;DHT22;12556;55.748;13.194;2022-10-16T15:03:51;15.80;99.90
11772;DHT22;12556;55.748;13.194;2022-10-16T15:06:20;15.80;99.90
11772;DHT22;12556;55.748;13.194;2022-10-16T15:08:47;15.80;99.90
11772;DHT22;12556;55.748;13.194;2022-10-16T15:11:16;15.70;99.90
11772;DHT22;12556;55.748;13.194;2022-10-16T15:13:43;15.60;99.90
11772;DHT22;12556;55.748;13.194;2022-10-16T15:16:13;15.60;99.90
11772;DHT22;12556;55.748;13.194;2022-10-16T15:18:41;15.50;99.90
11772;DHT22;12556;55.748;13.194;2022-10-16T15:21:08;15.50;99.90
11772;DHT22;12556;55.748;13.194;2022-10-16T15:23:42;15.40;99.90
11772;DHT22;12556;55.748;13.194;2022-10-16T15:26:09;15.40;99.90
11772;DHT22;12556;55.748;13.194;2022-10-16T15:28:36;15.40;99.90
11772;DHT22;12556;55.748;13.194;2022-10-16T15:31:04;15.30;99.90
11772;DHT22;12556;55.748;13.194;2022-10-16T15:33:33;15.30;99.90
11772;DHT22;12556;55.748;13.194;2022-10-16T15:36:01;15.30;99.90
11772;DHT22;12556;55.748;13.194;2022-10-16T15:38:29;15.20;99.90
11772;DHT22;12556;55.748;13.194;2022-10-16T15:40:56;15.10;99.90
11772;DHT22;12556;55.748;13.194;2022-10-16T15:43:23;15.10;99.90
11772;DHT22;12556;55.748;13.194;2022-10-16T15:45:59;15.00;99.90